createdAt,value
2023-03-23T00:02:49.031Z,4164.2
2023-03-23T00:08:27.506Z,4165.4
2023-03-23T00:14:14.145Z,4166.2
2023-03-23T00:19:50.044Z,4163
2023-03-23T00:25:46.089Z,4161.4
2023-03-23T00:31:29.031Z,4165.6
2023-03-23T00:37:08.485Z,4161.7
2023-03-23T00:42:44.133Z,4161.5
2023-03-23T00:48:19.992Z,4161.7
2023-03-23T00:54:18.372Z,4158.2
2023-03-23T01:00:06.718Z,4161.5
2023-03-23T01:05:43.875Z,4158.4
2023-03-23T01:11:55.354Z,4161.9
2023-03-23T01:17:34.450Z,4157.9
2023-03-23T01:23:13.323Z,4159.9
2023-03-23T01:28:51.723Z,4160.7
2023-03-23T01:34:28.656Z,4160.7
2023-03-23T01:40:34.692Z,4158.2
2023-03-23T01:46:11.875Z,4157.7
2023-03-23T01:52:12.836Z,4156.2
2023-03-23T01:58:00.244Z,4157.9
2023-03-23T02:03:43.225Z,4157.5
2023-03-23T02:09:59.660Z,4156.3
2023-03-23T02:15:36.015Z,4153.7
2023-03-23T02:21:13.196Z,4155.5
2023-03-23T02:26:49.863Z,4153.7
2023-03-23T02:32:28.179Z,4154.5
2023-03-23T02:38:04.087Z,4156.2
2023-03-23T02:43:39.610Z,4154.5
2023-03-23T02:49:15.083Z,4156.7
2023-03-23T02:55:11.994Z,4150.1
2023-03-23T03:01:09.335Z,4154.5
2023-03-23T03:07:08.863Z,4155.2
2023-03-23T03:13:08.830Z,4152.5
2023-03-23T03:18:53.593Z,4151.8
2023-03-23T03:24:39.775Z,4152.3
2023-03-23T03:30:16.350Z,4152.5
2023-03-23T03:35:53.235Z,4150.8
2023-03-23T03:41:30.222Z,4151
2023-03-23T03:47:07.344Z,4151.2
2023-03-23T03:52:44.595Z,4150.1
2023-03-23T03:58:21.084Z,4151.5
2023-03-23T04:03:57.314Z,4151.8
2023-03-23T04:09:34.613Z,4149.8
2023-03-23T04:15:31.588Z,4149
2023-03-23T04:21:25.557Z,4148.6
2023-03-23T04:27:11.709Z,4148.6
2023-03-23T04:33:03.093Z,4150.6
2023-03-23T04:39:20.041Z,4150.5
2023-03-23T04:44:55.522Z,4148.8
2023-03-23T04:50:39.330Z,4148.6
2023-03-23T04:56:37.436Z,4148.1
2023-03-23T05:02:19.618Z,4150.8
2023-03-23T05:07:59.826Z,4148.3
2023-03-23T05:13:40.130Z,4146
2023-03-23T05:19:18.130Z,4149.3
2023-03-23T05:24:53.224Z,4147.1
2023-03-23T05:30:28.338Z,4148.5
2023-03-23T05:36:04.863Z,4147.1
2023-03-23T05:41:53.569Z,4149.1
2023-03-23T05:47:34.647Z,4146.3
2023-03-23T05:53:14.310Z,4145
2023-03-23T05:58:58.301Z,4146.1
2023-03-23T06:05:14.337Z,4147.1
2023-03-23T06:11:08.602Z,4145.1
2023-03-23T06:16:44.005Z,4145.1
2023-03-23T06:22:19.212Z,4145
2023-03-23T06:27:54.440Z,4146.1
2023-03-23T06:33:48.560Z,4146.1
2023-03-23T06:39:26.747Z,4143.4
2023-03-23T06:45:09.004Z,4145
2023-03-23T06:50:47.872Z,4146.5
2023-03-23T06:56:44.921Z,4144
2023-03-23T07:02:39.955Z,4148
2023-03-23T07:08:15.734Z,4151.2
2023-03-23T07:14:29.043Z,4153.5
2023-03-23T07:20:18.693Z,4157.7
2023-03-23T07:25:56.560Z,4166.4
2023-03-23T07:31:33.271Z,4159.7
2023-03-23T07:37:08.776Z,4158.5
2023-03-23T07:42:50.957Z,4167.7
2023-03-23T07:48:27.894Z,4169.7
2023-03-23T07:54:25.559Z,4188.2
2023-03-23T07:59:58.594Z,4193.5
2023-03-23T08:05:33.623Z,4204.6
2023-03-23T08:11:08.755Z,4209.4
2023-03-23T08:16:43.821Z,4209.9
2023-03-23T08:22:54.082Z,4205.9
2023-03-23T08:28:30.490Z,4200.4
2023-03-23T08:34:21.203Z,4191.2
2023-03-23T08:40:00.646Z,4203.2
2023-03-23T08:45:47.427Z,4212.6
2023-03-23T08:51:37.379Z,4199.6
2023-03-23T08:57:13.836Z,4194.4
2023-03-23T09:02:52.034Z,4213.8
2023-03-23T09:08:31.250Z,4203.6
2023-03-23T09:14:09.489Z,4198.7
2023-03-23T09:19:45.211Z,4199.6
2023-03-23T09:25:24.755Z,4222.2
2023-03-23T09:31:09.297Z,4218.2
2023-03-23T09:36:44.993Z,4218.2
2023-03-23T09:42:29.448Z,4203.1
2023-03-23T09:48:34.968Z,4222.8
2023-03-23T09:54:10.581Z,4218.8
2023-03-23T09:59:50.247Z,4220.5
2023-03-23T10:05:40.597Z,4223.2
2023-03-23T10:11:21.794Z,4201.1
2023-03-23T10:17:22.738Z,4206.8
2023-03-23T10:23:17.584Z,4215.3
2023-03-23T10:28:52.775Z,4211.3
2023-03-23T10:34:27.648Z,4224.2
2023-03-23T10:40:03.446Z,4222
2023-03-23T10:46:02.160Z,4214.6
2023-03-23T10:51:38.170Z,4217
2023-03-23T10:57:14.116Z,4217.1
2023-03-23T11:02:49.845Z,4214.8
2023-03-23T11:08:26.073Z,4217.6
2023-03-23T11:14:02.648Z,4208.6
2023-03-23T11:19:58.271Z,4222
2023-03-23T11:25:34.165Z,4220.8
2023-03-23T11:31:11.032Z,4217
2023-03-23T11:36:48.789Z,4223.8
2023-03-23T11:42:24.411Z,4220
2023-03-23T11:48:13.905Z,4216.5
2023-03-23T11:53:49.926Z,4229.7
2023-03-23T11:59:28.775Z,4212.8
2023-03-23T12:05:11.986Z,4219.8
2023-03-23T12:11:02.392Z,4220.7
2023-03-23T12:17:01.421Z,4220.8
2023-03-23T12:22:41.249Z,4219.8
2023-03-23T12:28:16.534Z,4225.5
2023-03-23T12:33:54.392Z,4226.9
2023-03-23T12:40:04.117Z,4219.5
2023-03-23T12:45:59.130Z,4218.2
2023-03-23T12:51:40.729Z,4213.6
2023-03-23T12:57:21.129Z,4228
2023-03-23T13:02:59.046Z,4225.9
2023-03-23T13:08:34.625Z,4223.7
2023-03-23T13:14:09.995Z,4223.3
2023-03-23T13:20:05.604Z,4229.4
2023-03-23T13:26:00.034Z,4222
2023-03-23T13:31:44.211Z,4219
2023-03-23T13:37:28.878Z,4215.8
2023-03-23T13:43:32.955Z,4223.2
2023-03-23T13:49:24.684Z,4223.8
2023-03-23T13:55:00.428Z,4227.5
2023-03-23T14:01:16.778Z,4222.3
2023-03-23T14:07:41.086Z,4222.3
2023-03-23T14:13:19.924Z,4217.6
2023-03-23T14:18:56.955Z,4216.5
2023-03-23T14:24:37.055Z,4224.7
2023-03-23T14:30:14.787Z,4222.5
2023-03-23T14:35:50.184Z,4223.3
2023-03-23T14:41:25.613Z,4223.2
2023-03-23T14:47:09.106Z,4212.3
2023-03-23T14:52:45.696Z,4222.5
2023-03-23T14:59:23.863Z,4230.4
2023-03-23T15:05:01.608Z,4227.2
2023-03-23T15:10:36.811Z,4217.6
2023-03-23T15:16:13.453Z,4220.7
2023-03-23T15:22:12.133Z,4211.3
2023-03-23T15:28:16.600Z,4209.4
2023-03-23T15:34:01.990Z,4201.7
2023-03-23T15:39:56.110Z,4206.1
2023-03-23T15:45:31.575Z,4204.4
2023-03-23T15:51:13.001Z,4202.4
2023-03-23T15:56:49.196Z,4205.8
2023-03-23T16:02:24.735Z,4204.1
2023-03-23T16:08:00.174Z,4206.8
2023-03-23T16:13:41.890Z,4207.6
2023-03-23T16:19:17.968Z,4206.3
2023-03-23T16:24:57.062Z,4204.8
2023-03-23T16:30:58.845Z,4204.4
2023-03-23T16:36:46.574Z,4201.7
2023-03-23T16:42:22.806Z,4202.9
2023-03-23T16:48:09.548Z,4202.6
2023-03-23T16:53:44.977Z,4203.1
2023-03-23T16:59:20.812Z,4198.1
2023-03-23T17:04:56.177Z,4199.1
2023-03-23T17:10:32.357Z,4198.4
2023-03-23T17:16:09.769Z,4198.9
2023-03-23T17:21:54.276Z,4199.4
2023-03-23T17:27:32.813Z,4197.9
2023-03-23T17:33:09.103Z,4197.2
2023-03-23T17:38:44.984Z,4196.7
2023-03-23T17:44:20.456Z,4196
2023-03-23T17:49:55.696Z,4196.9
2023-03-23T17:55:33.807Z,4193.2
2023-03-23T18:01:28.996Z,4193.7
2023-03-23T18:07:08.182Z,4197
2023-03-23T18:12:49.452Z,4192.5
2023-03-23T18:18:24.893Z,4193.9
2023-03-23T18:24:06.495Z,4194.7
2023-03-23T18:30:09.333Z,4196
2023-03-23T18:35:48.268Z,4193.7
2023-03-23T18:41:24.105Z,4191.5
2023-03-23T18:47:03.198Z,4191
2023-03-23T18:52:43.600Z,4190.9
2023-03-23T18:58:27.830Z,4192
2023-03-23T19:04:12.639Z,4193.2
2023-03-23T19:10:02.145Z,4193
2023-03-23T19:15:44.756Z,4192
2023-03-23T19:21:57.441Z,4189.3
2023-03-23T19:29:23.709Z,4189.5
2023-03-23T19:35:05.127Z,4189.8
2023-03-23T19:40:48.008Z,4188.5
2023-03-23T19:46:47.311Z,4188.7
2023-03-23T19:52:24.068Z,4186.7
2023-03-23T19:58:01.955Z,4188
2023-03-23T20:03:39.933Z,4186.2
2023-03-23T20:09:19.797Z,4186.7
2023-03-23T20:15:09.846Z,4190.3
2023-03-23T20:21:09.509Z,4184.3
2023-03-23T20:27:06.160Z,4186
2023-03-23T20:33:26.273Z,4186.2
2023-03-23T20:39:05.536Z,4184.7
2023-03-23T20:44:43.850Z,4184.8
2023-03-23T20:50:23.458Z,4184.7
2023-03-23T20:56:07.733Z,4182.1
2023-03-23T21:01:51.960Z,4182.5
2023-03-23T21:07:27.094Z,4181.1
2023-03-23T21:13:07.768Z,4182.6
2023-03-23T21:19:02.297Z,4183.6
2023-03-23T21:24:37.829Z,4179.6
2023-03-23T21:30:20.396Z,4181.1
2023-03-23T21:36:01.064Z,4179.8
2023-03-23T21:42:03.667Z,4181.8
2023-03-23T21:47:41.758Z,4178.6
2023-03-23T21:53:16.704Z,4176.6
2023-03-23T21:59:23.449Z,4175.3
2023-03-23T22:05:08.970Z,4179.3
2023-03-23T22:11:21.836Z,4174.1
2023-03-23T22:17:19.499Z,4176.1
2023-03-23T22:23:22.268Z,4176.3
2023-03-23T22:28:58.103Z,4174.8
2023-03-23T22:34:34.414Z,4175.1
2023-03-23T22:40:14.563Z,4177.1
2023-03-23T22:46:10.655Z,4179
2023-03-23T22:51:49.907Z,4175.6
2023-03-23T22:57:46.196Z,4178
2023-03-23T23:03:23.155Z,4174.6
2023-03-23T23:09:19.986Z,4175.1
2023-03-23T23:14:58.279Z,4173.8
2023-03-23T23:21:05.159Z,4172.3
2023-03-23T23:26:50.758Z,4174.6
2023-03-23T23:32:48.953Z,4172.9
2023-03-23T23:38:25.329Z,4174.3
2023-03-23T23:44:03.794Z,4171.6
2023-03-23T23:49:38.719Z,4172.8
2023-03-23T23:55:16.980Z,4172.1
